Time;durP1;ratioP1;P1;durP2;ratioP2;P2;SDS_P1;SDS_P2;PMS_P1;PMS_P2;Temp;Humidity;BMP_temperature;BMP_pressure;BME280_temperature;BME280_humidity;BME280_pressure;Samples;Min_cycle;Max_cycle;Signal;HPM_P1;HPM_P2
2022/11/03 00:00:10;;;;;;;;;;;20.10;67.10;;;;;;5033198;28;19999;-70
2022/11/03 00:02:37;;;;;;;;;;;20.00;66.20;;;;;;5040645;28;20015;-70
2022/11/03 00:06:03;;;;;;;;;;;20.00;66.60;;;;;;5019770;28;19923;-72
2022/11/03 00:07:50;;;;;;;;;;;20.10;66.40;;;;;;5033228;28;19913;-74
2022/11/03 00:10:16;;;;;;;;;;;20.20;65.60;;;;;;5038351;28;19909;-72
2022/11/03 00:12:43;;;;;;;;;;;20.50;65.30;;;;;;5039751;28;19920;-73
2022/11/03 00:15:10;;;;;;;;;;;20.50;65.00;;;;;;5038125;28;19920;-70
2022/11/03 00:17:36;;;;;;;;;;;20.70;65.40;;;;;;5041341;28;20036;-73
2022/11/03 00:20:03;;;;;;;;;;;20.80;64.70;;;;;;5040203;28;19989;-72
2022/11/03 00:22:32;;;;;;;;;;;20.90;63.50;;;;;;5036061;28;19924;-71
2022/11/03 00:24:58;;;;;;;;;;;21.00;64.30;;;;;;5032057;28;19913;-71
2022/11/03 00:27:25;;;;;;;;;;;21.10;64.30;;;;;;5037881;28;19983;-71
2022/11/03 00:29:52;;;;;;;;;;;21.40;63.60;;;;;;5039978;28;20381;-70
2022/11/03 00:32:18;;;;;;;;;;;21.40;62.70;;;;;;5035131;28;20008;-71
2022/11/03 00:34:45;;;;;;;;;;;21.40;62.10;;;;;;5038229;28;20408;-71
2022/11/03 00:37:12;;;;;;;;;;;21.30;62.30;;;;;;5038160;28;19963;-69
2022/11/03 00:39:38;;;;;;;;;;;21.30;62.10;;;;;;5034700;28;19921;-70
2022/11/03 00:42:05;;;;;;;;;;;21.20;62.70;;;;;;5038156;28;19913;-70
2022/11/03 00:44:31;;;;;;;;;;;21.20;62.80;;;;;;5037862;28;19919;-71
2022/11/03 00:46:58;;;;;;;;;;;21.00;63.00;;;;;;5019534;28;19913;-71
2022/11/03 00:49:25;;;;;;;;;;;21.00;63.70;;;;;;5039909;28;19913;-72
2022/11/03 00:51:51;;;;;;;;;;;21.00;63.00;;;;;;5042148;28;19925;-69
2022/11/03 00:54:18;;;;;;;;;;;21.00;61.90;;;;;;5039718;28;19912;-70
2022/11/03 00:56:44;;;;;;;;;;;21.00;61.80;;;;;;5040535;28;20646;-70
2022/11/03 00:59:11;;;;;;;;;;;21.00;61.80;;;;;;5035735;28;19917;-72
2022/11/03 01:01:39;;;;;;;;;;;20.90;62.70;;;;;;5036536;28;20350;-72
2022/11/03 01:06:53;;;;;;;;;;;20.60;64.30;;;;;;5041165;28;19915;-66
2022/11/03 01:09:24;;;;;;;;;;;20.60;63.40;;;;;;5040172;28;19919;-69
2022/11/03 01:11:50;;;;;;;;;;;20.70;63.40;;;;;;5042002;28;19926;-70
2022/11/03 01:14:17;;;;;;;;;;;20.70;62.60;;;;;;5042131;28;19909;-70
2022/11/03 01:16:44;;;;;;;;;;;20.60;62.60;;;;;;5041227;28;19909;-69
2022/11/03 01:19:10;;;;;;;;;;;20.50;63.30;;;;;;5023665;28;19916;-68
2022/11/03 01:21:37;;;;;;;;;;;20.20;64.30;;;;;;5042404;28;19978;-72
2022/11/03 01:24:04;;;;;;;;;;;20.00;63.90;;;;;;5045974;28;19951;-68
2022/11/03 01:26:31;;;;;;;;;;;19.90;63.90;;;;;;5040432;28;19920;-71
2022/11/03 01:28:59;;;;;;;;;;;19.90;63.40;;;;;;5039979;28;20317;-71
2022/11/03 01:31:26;;;;;;;;;;;19.90;61.90;;;;;;5042371;28;19921;-72
2022/11/03 01:33:54;;;;;;;;;;;19.90;61.60;;;;;;5041897;28;20369;-68
2022/11/03 01:36:21;;;;;;;;;;;20.00;62.20;;;;;;5060160;28;20562;-67
2022/11/03 01:38:48;;;;;;;;;;;19.90;63.40;;;;;;5038691;28;19916;-72
2022/11/03 01:41:22;;;;;;;;;;;19.80;64.10;;;;;;5041101;28;19913;-75
2022/11/03 01:44:08;;;;;;;;;;;19.70;63.80;;;;;;5039576;28;19913;-72
2022/11/03 01:46:55;;;;;;;;;;;19.70;64.30;;;;;;4998450;28;19962;-70
2022/11/03 01:49:25;;;;;;;;;;;19.70;64.40;;;;;;5007728;28;20505;-71
2022/11/03 01:51:54;;;;;;;;;;;19.60;63.70;;;;;;5038780;28;19949;-68
2022/11/03 01:54:22;;;;;;;;;;;19.60;64.50;;;;;;5042699;28;19932;-74
2022/11/03 01:56:50;;;;;;;;;;;19.50;64.80;;;;;;5038450;28;19920;-68
2022/11/03 01:59:17;;;;;;;;;;;19.50;65.20;;;;;;5044069;28;20316;-68
2022/11/03 02:01:44;;;;;;;;;;;19.50;65.80;;;;;;5041191;28;19916;-73
2022/11/03 02:04:13;;;;;;;;;;;19.60;66.30;;;;;;5042093;28;19981;-70
2022/11/03 02:06:40;;;;;;;;;;;19.80;65.00;;;;;;5042159;28;19921;-70
2022/11/03 02:09:07;;;;;;;;;;;20.60;64.10;;;;;;5042424;28;19909;-69
2022/11/03 02:14:20;;;;;;;;;;;20.90;62.70;;;;;;5045075;28;19955;-72
2022/11/03 02:16:52;;;;;;;;;;;20.80;62.90;;;;;;5044774;28;20579;-68
2022/11/03 02:19:41;;;;;;;;;;;20.70;63.60;;;;;;5045190;28;20220;-67
2022/11/03 02:22:11;;;;;;;;;;;20.60;62.20;;;;;;5053509;28;19932;-68
2022/11/03 02:24:41;;;;;;;;;;;20.50;62.20;;;;;;5048624;28;19919;-69
2022/11/03 02:27:07;;;;;;;;;;;20.50;62.70;;;;;;5055681;28;20365;-71
2022/11/03 02:29:34;;;;;;;;;;;20.40;63.60;;;;;;5040952;28;20336;-71
2022/11/03 02:32:21;;;;;;;;;;;20.30;63.40;;;;;;5041425;28;20124;-71
2022/11/03 02:35:05;;;;;;;;;;;20.30;63.80;;;;;;5052415;28;19944;-67
2022/11/03 02:37:35;;;;;;;;;;;20.20;64.10;;;;;;5044875;28;19909;-71
2022/11/03 02:40:08;;;;;;;;;;;20.10;64.40;;;;;;5041897;28;19908;-71
2022/11/03 02:42:35;;;;;;;;;;;20.10;64.00;;;;;;5040894;28;20073;-71
2022/11/03 02:45:03;;;;;;;;;;;20.10;63.40;;;;;;5040370;28;19970;-71
2022/11/03 02:47:31;;;;;;;;;;;20.10;63.90;;;;;;5036518;28;19920;-68
2022/11/03 02:49:57;;;;;;;;;;;20.00;63.90;;;;;;5040626;28;19912;-68
2022/11/03 02:52:35;;;;;;;;;;;20.00;65.00;;;;;;5038474;28;19920;-71
2022/11/03 02:55:22;;;;;;;;;;;20.20;67.60;;;;;;5039535;28;20020;-69
2022/11/03 02:58:08;;;;;;;;;;;20.20;67.40;;;;;;5036259;28;19913;-71
2022/11/03 03:00:40;;;;;;;;;;;20.40;68.90;;;;;;5027214;28;20423;-70
2022/11/03 03:03:09;;;;;;;;;;;20.70;67.00;;;;;;5033765;28;19963;-71
2022/11/03 03:05:37;;;;;;;;;;;21.00;65.70;;;;;;5039770;28;20387;-71
2022/11/03 03:08:07;;;;;;;;;;;21.10;66.30;;;;;;5039857;28;19917;-71
2022/11/03 03:10:37;;;;;;;;;;;21.00;66.90;;;;;;5039970;28;19946;-71
2022/11/03 03:13:06;;;;;;;;;;;20.90;66.80;;;;;;5040238;28;19925;-71
2022/11/03 03:15:50;;;;;;;;;;;21.00;67.10;;;;;;5036564;28;19913;-71
2022/11/03 03:18:22;;;;;;;;;;;21.40;67.30;;;;;;5035786;28;19909;-71
2022/11/03 03:21:02;;;;;;;;;;;22.10;66.30;;;;;;5019716;28;19921;-73
2022/11/03 03:23:34;;;;;;;;;;;23.90;61.00;;;;;;5034539;28;19909;-71
2022/11/03 03:26:07;;;;;;;;;;;24.50;59.20;;;;;;5041091;28;19909;-66
2022/11/03 03:28:41;;;;;;;;;;;23.90;59.10;;;;;;5039741;28;19924;-70
2022/11/03 03:31:08;;;;;;;;;;;23.60;59.20;;;;;;5022370;28;19921;-69
2022/11/03 03:33:36;;;;;;;;;;;23.30;60.70;;;;;;5059585;28;19917;-71
2022/11/03 03:36:04;;;;;;;;;;;23.10;59.90;;;;;;5045141;28;19923;-70
2022/11/03 03:38:36;;;;;;;;;;;23.10;60.80;;;;;;5036698;28;19912;-73
2022/11/03 03:41:03;;;;;;;;;;;23.20;60.70;;;;;;5038190;28;19913;-72
2022/11/03 03:43:32;;;;;;;;;;;22.90;61.00;;;;;;5021058;28;19955;-73
2022/11/03 03:46:02;;;;;;;;;;;23.00;61.00;;;;;;5040422;28;19909;-71
2022/11/03 03:48:28;;;;;;;;;;;23.30;60.80;;;;;;5038752;28;20373;-72
2022/11/03 03:50:55;;;;;;;;;;;23.50;61.00;;;;;;5041190;28;19913;-73
2022/11/03 03:53:22;;;;;;;;;;;23.60;61.90;;;;;;5022787;28;19920;-72
2022/11/03 03:55:50;;;;;;;;;;;23.40;61.60;;;;;;5039484;28;20381;-72
2022/11/03 03:58:17;;;;;;;;;;;23.00;62.60;;;;;;5040210;28;19909;-72
2022/11/03 04:00:44;;;;;;;;;;;22.60;62.10;;;;;;5040446;28;19951;-70
2022/11/03 04:03:21;;;;;;;;;;;22.20;63.00;;;;;;5049358;28;20396;-71
2022/11/03 04:05:47;;;;;;;;;;;22.10;65.40;;;;;;5039336;28;19987;-69
2022/11/03 04:08:14;;;;;;;;;;;23.30;64.00;;;;;;5040702;28;20297;-73
2022/11/03 04:22:15;;;;;;;;;;;24.20;61.70;;;;;;5038344;28;19912;-68
2022/11/03 04:24:26;;;;;;;;;;;28.20;59.30;;;;;;5043357;28;20274;-68
2022/11/03 04:26:53;;;;;;;;;;;30.50;53.20;;;;;;5043451;28;19917;-68
2022/11/03 04:29:19;;;;;;;;;;;31.60;51.20;;;;;;5043091;28;19917;-71
2022/11/03 04:31:46;;;;;;;;;;;32.60;50.70;;;;;;5042577;28;19917;-71
2022/11/03 04:34:13;;;;;;;;;;;32.90;49.40;;;;;;5043608;28;19960;-73
2022/11/03 04:36:39;;;;;;;;;;;32.50;48.70;;;;;;5044534;28;19916;-73
2022/11/03 04:39:12;;;;;;;;;;;32.40;48.60;;;;;;5025468;28;20374;-73
2022/11/03 04:41:39;;;;;;;;;;;32.50;49.10;;;;;;5043436;28;19909;-73
2022/11/03 04:44:10;;;;;;;;;;;33.00;48.80;;;;;;5042870;28;19916;-74
2022/11/03 04:46:37;;;;;;;;;;;33.50;48.70;;;;;;5043333;28;20011;-70
2022/11/03 04:49:05;;;;;;;;;;;33.80;47.40;;;;;;5042929;28;19913;-73
2022/11/03 04:51:34;;;;;;;;;;;32.80;50.20;;;;;;5041901;28;20365;-72
2022/11/03 04:54:06;;;;;;;;;;;34.30;47.80;;;;;;5042995;28;19997;-73
2022/11/03 04:56:33;;;;;;;;;;;35.30;47.70;;;;;;5043138;28;19919;-72
2022/11/03 04:58:59;;;;;;;;;;;35.90;45.60;;;;;;5043685;28;20001;-70
2022/11/03 05:01:26;;;;;;;;;;;35.50;45.60;;;;;;5041333;28;19915;-72
2022/11/03 05:03:53;;;;;;;;;;;33.70;46.40;;;;;;5043960;28;19920;-70
2022/11/03 05:06:26;;;;;;;;;;;33.50;47.10;;;;;;5042927;28;19955;-72
2022/11/03 05:08:54;;;;;;;;;;;34.30;46.00;;;;;;5042469;28;19916;-72
2022/11/03 05:11:21;;;;;;;;;;;34.10;46.00;;;;;;5051169;28;19919;-72
2022/11/03 05:13:48;;;;;;;;;;;34.30;46.70;;;;;;5042935;28;19917;-72
2022/11/03 05:16:15;;;;;;;;;;;33.90;46.90;;;;;;5059331;28;19998;-71
2022/11/03 05:18:43;;;;;;;;;;;34.30;46.40;;;;;;5062881;28;19960;-71
2022/11/03 05:21:12;;;;;;;;;;;33.70;47.20;;;;;;5042486;28;19912;-70
2022/11/03 05:23:40;;;;;;;;;;;32.50;49.70;;;;;;5042573;28;19915;-70
2022/11/03 05:26:11;;;;;;;;;;;32.50;50.10;;;;;;5043171;28;19909;-69
2022/11/03 05:28:40;;;;;;;;;;;31.50;51.40;;;;;;5041241;28;19916;-72
2022/11/03 05:31:15;;;;;;;;;;;29.70;54.60;;;;;;5052236;28;19931;-71
2022/11/03 05:33:43;;;;;;;;;;;28.10;58.30;;;;;;5048993;28;19921;-72
2022/11/03 05:36:19;;;;;;;;;;;27.00;60.20;;;;;;5053465;28;19909;-73
2022/11/03 05:38:46;;;;;;;;;;;25.90;62.60;;;;;;5024756;28;19909;-71
2022/11/03 05:41:26;;;;;;;;;;;25.00;65.00;;;;;;5042429;28;19916;-73
2022/11/03 05:43:57;;;;;;;;;;;24.20;65.90;;;;;;5042724;28;19915;-73
2022/11/03 05:46:26;;;;;;;;;;;23.40;68.00;;;;;;5041523;28;20379;-73
2022/11/03 05:48:53;;;;;;;;;;;22.80;69.90;;;;;;5042016;28;20068;-72
2022/11/03 05:51:24;;;;;;;;;;;22.40;72.20;;;;;;5041162;28;20353;-72
2022/11/03 05:53:55;;;;;;;;;;;22.10;72.10;;;;;;5041988;28;19909;-72
2022/11/03 05:56:22;;;;;;;;;;;21.90;72.70;;;;;;5021289;28;19916;-73
2022/11/03 05:58:49;;;;;;;;;;;21.60;73.20;;;;;;5043005;28;20289;-72
2022/11/03 06:01:24;;;;;;;;;;;21.40;74.00;;;;;;5024013;28;19985;-73
2022/11/03 06:03:51;;;;;;;;;;;21.10;75.20;;;;;;5041607;28;19921;-73
2022/11/03 06:06:22;;;;;;;;;;;21.00;76.10;;;;;;5041912;28;19916;-72
2022/11/03 06:08:49;;;;;;;;;;;21.00;77.30;;;;;;5055375;28;19905;-73
2022/11/03 06:11:21;;;;;;;;;;;21.00;77.20;;;;;;5042222;28;19912;-73
2022/11/03 06:13:47;;;;;;;;;;;21.40;77.60;;;;;;5041617;28;20361;-71
2022/11/03 06:16:17;;;;;;;;;;;22.50;74.80;;;;;;5042809;28;20003;-73
2022/11/03 06:18:43;;;;;;;;;;;23.70;72.20;;;;;;5023315;28;20347;-71
2022/11/03 06:21:15;;;;;;;;;;;24.70;69.10;;;;;;5024320;28;19912;-73
2022/11/03 06:23:42;;;;;;;;;;;25.70;67.40;;;;;;5027345;28;20349;-72
2022/11/03 06:26:13;;;;;;;;;;;26.30;65.90;;;;;;5048188;28;19909;-71
2022/11/03 06:28:40;;;;;;;;;;;26.30;65.40;;;;;;5039688;28;19923;-70
2022/11/03 06:31:27;;;;;;;;;;;26.10;65.80;;;;;;5023320;28;19916;-72
2022/11/03 06:33:54;;;;;;;;;;;26.00;65.20;;;;;;5051044;28;19920;-72
2022/11/03 06:36:22;;;;;;;;;;;24.90;66.40;;;;;;5060760;28;19919;-71
2022/11/03 06:38:56;;;;;;;;;;;23.80;69.30;;;;;;5044718;28;19943;-71
2022/11/03 06:41:24;;;;;;;;;;;23.30;70.30;;;;;;5040507;28;19909;-72
2022/11/03 06:43:51;;;;;;;;;;;22.90;72.00;;;;;;5027749;28;19935;-72
2022/11/03 06:46:20;;;;;;;;;;;23.00;72.00;;;;;;5041722;28;20354;-71
2022/11/03 06:48:46;;;;;;;;;;;23.10;71.50;;;;;;5038972;28;19916;-70
2022/11/03 06:51:19;;;;;;;;;;;22.60;71.80;;;;;;5004451;28;19976;-72
2022/11/03 06:53:46;;;;;;;;;;;22.40;72.50;;;;;;5029937;28;19967;-71
2022/11/03 06:56:15;;;;;;;;;;;22.20;73.40;;;;;;5042214;28;19908;-73
2022/11/03 06:58:42;;;;;;;;;;;22.00;74.30;;;;;;5040499;28;20008;-72
2022/11/03 07:01:14;;;;;;;;;;;21.80;75.00;;;;;;5042125;28;19909;-73
2022/11/03 07:03:41;;;;;;;;;;;21.40;75.80;;;;;;5023195;28;19975;-71
2022/11/03 07:06:11;;;;;;;;;;;21.10;77.80;;;;;;5041947;28;19959;-70
2022/11/03 07:08:42;;;;;;;;;;;20.90;77.80;;;;;;5051697;28;19908;-71
2022/11/03 07:11:13;;;;;;;;;;;20.70;78.10;;;;;;5025519;28;20431;-71
2022/11/03 07:13:44;;;;;;;;;;;20.50;78.90;;;;;;5040806;28;19959;-72
2022/11/03 07:16:20;;;;;;;;;;;20.20;79.70;;;;;;5042481;28;19913;-74
2022/11/03 07:18:47;;;;;;;;;;;20.00;80.10;;;;;;5039867;28;19916;-74
2022/11/03 07:21:26;;;;;;;;;;;19.90;80.90;;;;;;5042089;28;19920;-71
2022/11/03 07:23:52;;;;;;;;;;;19.80;81.00;;;;;;5039735;28;20064;-70
2022/11/03 07:26:19;;;;;;;;;;;19.60;81.30;;;;;;5041795;28;20024;-71
2022/11/03 07:28:47;;;;;;;;;;;19.60;81.20;;;;;;5045355;28;19912;-70
2022/11/03 07:31:18;;;;;;;;;;;19.60;81.20;;;;;;5031809;28;19920;-73
2022/11/03 07:33:45;;;;;;;;;;;19.70;80.60;;;;;;5044932;28;20818;-74
2022/11/03 07:36:16;;;;;;;;;;;19.70;80.30;;;;;;5025753;28;19962;-72
2022/11/03 07:38:43;;;;;;;;;;;19.70;80.90;;;;;;5049305;28;20003;-72
2022/11/03 07:41:15;;;;;;;;;;;19.60;81.20;;;;;;5050106;28;19943;-71
2022/11/03 07:43:47;;;;;;;;;;;19.60;81.00;;;;;;5040490;28;20278;-72
2022/11/03 07:46:17;;;;;;;;;;;19.60;81.60;;;;;;5040842;28;19915;-73
2022/11/03 07:48:45;;;;;;;;;;;19.50;81.80;;;;;;5035015;28;19921;-70
2022/11/03 07:51:12;;;;;;;;;;;19.40;81.90;;;;;;5025206;28;19956;-73
2022/11/03 07:53:40;;;;;;;;;;;19.40;82.60;;;;;;5053088;28;20652;-71
2022/11/03 07:56:30;;;;;;;;;;;19.10;82.80;;;;;;5040707;28;19991;-72
2022/11/03 07:59:04;;;;;;;;;;;19.10;83.00;;;;;;5053411;28;19912;-72
2022/11/03 08:01:32;;;;;;;;;;;19.00;83.00;;;;;;5028045;28;20425;-70
2022/11/03 08:04:01;;;;;;;;;;;19.00;83.50;;;;;;5044520;28;19933;-72
2022/11/03 08:06:27;;;;;;;;;;;19.00;83.40;;;;;;5044092;28;20366;-72
2022/11/03 08:08:54;;;;;;;;;;;18.90;83.70;;;;;;5026227;28;19956;-74
2022/11/03 08:11:22;;;;;;;;;;;18.80;83.70;;;;;;5057122;28;19916;-73
2022/11/03 08:13:50;;;;;;;;;;;18.70;83.90;;;;;;5061779;28;19948;-73
2022/11/03 08:16:17;;;;;;;;;;;18.60;84.30;;;;;;5064166;28;19908;-72
2022/11/03 08:18:44;;;;;;;;;;;18.50;83.80;;;;;;5062943;28;20049;-73
2022/11/03 08:21:10;;;;;;;;;;;18.40;84.80;;;;;;5064186;28;20260;-71
2022/11/03 08:23:37;;;;;;;;;;;18.30;85.30;;;;;;5063641;28;20007;-71
2022/11/03 08:26:04;;;;;;;;;;;18.30;85.50;;;;;;5047912;28;19909;-71
2022/11/03 08:28:31;;;;;;;;;;;18.20;85.70;;;;;;5047080;28;20376;-70
2022/11/03 08:31:03;;;;;;;;;;;18.10;86.20;;;;;;5056025;28;20160;-73
2022/11/03 08:33:31;;;;;;;;;;;18.10;86.70;;;;;;5062671;28;20365;-70
2022/11/03 08:35:58;;;;;;;;;;;18.10;86.50;;;;;;5063071;28;20679;-72
2022/11/03 08:38:25;;;;;;;;;;;18.00;86.80;;;;;;5046771;28;19962;-73
2022/11/03 08:40:52;;;;;;;;;;;18.00;86.70;;;;;;5046743;28;20031;-73
2022/11/03 08:43:19;;;;;;;;;;;17.80;86.50;;;;;;5042967;28;20662;-72
2022/11/03 08:45:46;;;;;;;;;;;17.80;87.00;;;;;;5025167;28;19909;-70
2022/11/03 08:48:13;;;;;;;;;;;17.80;87.40;;;;;;5043033;28;20387;-72
2022/11/03 08:50:39;;;;;;;;;;;17.80;87.40;;;;;;5040809;28;20118;-71
2022/11/03 08:53:06;;;;;;;;;;;17.90;87.00;;;;;;5041653;28;19959;-70
2022/11/03 08:55:32;;;;;;;;;;;17.90;86.80;;;;;;5042969;28;19913;-71
2022/11/03 08:57:59;;;;;;;;;;;17.90;86.70;;;;;;5042645;28;19916;-72
2022/11/03 09:00:26;;;;;;;;;;;17.90;86.60;;;;;;5040240;28;19920;-72
2022/11/03 09:02:52;;;;;;;;;;;18.00;86.70;;;;;;5042288;28;19927;-70
2022/11/03 09:05:19;;;;;;;;;;;18.00;86.50;;;;;;5044434;28;20270;-73
2022/11/03 09:07:48;;;;;;;;;;;18.10;86.40;;;;;;5043524;28;19912;-72
2022/11/03 09:10:18;;;;;;;;;;;18.00;86.60;;;;;;5051799;28;20313;-69
2022/11/03 09:12:44;;;;;;;;;;;17.90;86.70;;;;;;5044185;28;19920;-69
2022/11/03 09:15:11;;;;;;;;;;;18.00;87.00;;;;;;5041160;28;20396;-70
2022/11/03 09:17:38;;;;;;;;;;;18.00;87.80;;;;;;5024137;28;19909;-72
2022/11/03 09:20:05;;;;;;;;;;;17.90;87.40;;;;;;5045605;28;19967;-74
2022/11/03 09:22:32;;;;;;;;;;;18.00;87.30;;;;;;5045755;28;19920;-72
2022/11/03 09:24:58;;;;;;;;;;;17.90;86.90;;;;;;5063550;28;20324;-70
2022/11/03 09:27:25;;;;;;;;;;;17.90;87.30;;;;;;5042818;28;19912;-74
2022/11/03 09:29:52;;;;;;;;;;;17.90;87.20;;;;;;5063371;28;19912;-71
2022/11/03 09:32:18;;;;;;;;;;;17.90;89.60;;;;;;5049783;28;19920;-75
2022/11/03 09:34:45;;;;;;;;;;;18.00;90.40;;;;;;5044528;28;19913;-71
2022/11/03 09:37:12;;;;;;;;;;;17.80;90.70;;;;;;5046277;28;20000;-74
2022/11/03 09:39:38;;;;;;;;;;;17.70;91.80;;;;;;5047526;28;20497;-73
2022/11/03 09:42:05;;;;;;;;;;;17.70;91.70;;;;;;5026256;28;20384;-73
2022/11/03 09:44:33;;;;;;;;;;;17.60;91.90;;;;;;5044094;28;19948;-70
2022/11/03 09:47:00;;;;;;;;;;;17.60;92.60;;;;;;5042690;28;19919;-71
2022/11/03 09:49:27;;;;;;;;;;;17.50;92.70;;;;;;5041607;28;19920;-71
2022/11/03 09:51:54;;;;;;;;;;;17.60;93.00;;;;;;5043720;28;20270;-71
2022/11/03 09:54:21;;;;;;;;;;;17.50;93.30;;;;;;5042500;28;20319;-72
2022/11/03 09:56:48;;;;;;;;;;;17.40;92.80;;;;;;5042962;28;19916;-72
2022/11/03 09:59:14;;;;;;;;;;;17.40;93.10;;;;;;5042864;28;19956;-73
2022/11/03 10:01:42;;;;;;;;;;;17.40;93.10;;;;;;5055653;28;19916;-72
2022/11/03 10:04:10;;;;;;;;;;;17.30;92.60;;;;;;5045353;28;20011;-71
2022/11/03 10:06:37;;;;;;;;;;;17.40;93.30;;;;;;5055940;28;20313;-72
2022/11/03 10:09:06;;;;;;;;;;;17.40;93.70;;;;;;5024944;28;19935;-72
2022/11/03 10:11:34;;;;;;;;;;;17.50;93.20;;;;;;5049559;28;19986;-73
2022/11/03 10:14:01;;;;;;;;;;;17.40;93.30;;;;;;5030930;28;19935;-70
2022/11/03 10:16:28;;;;;;;;;;;17.40;92.90;;;;;;5055971;28;19940;-72
2022/11/03 10:18:54;;;;;;;;;;;17.40;93.10;;;;;;5058475;28;19912;-71
2022/11/03 10:21:29;;;;;;;;;;;17.30;93.40;;;;;;5046611;28;19960;-71
2022/11/03 10:23:56;;;;;;;;;;;17.30;93.40;;;;;;5045043;28;20323;-73
2022/11/03 10:26:23;;;;;;;;;;;17.20;93.70;;;;;;5041101;28;19912;-71
2022/11/03 10:29:01;;;;;;;;;;;17.30;94.30;;;;;;5024728;28;19913;-73
2022/11/03 10:31:49;;;;;;;;;;;17.20;95.00;;;;;;5051746;28;19921;-72
2022/11/03 10:34:25;;;;;;;;;;;17.30;95.40;;;;;;5040694;28;19973;-74
2022/11/03 10:37:11;;;;;;;;;;;17.30;96.70;;;;;;5055873;28;20557;-70
2022/11/03 10:39:38;;;;;;;;;;;17.30;96.90;;;;;;5014236;28;19979;-71
2022/11/03 10:42:05;;;;;;;;;;;17.20;97.30;;;;;;5025626;28;19939;-72
2022/11/03 10:44:32;;;;;;;;;;;17.10;97.50;;;;;;5040725;28;19909;-72
2022/11/03 10:47:02;;;;;;;;;;;17.00;98.20;;;;;;5041134;28;19988;-72
2022/11/03 10:49:34;;;;;;;;;;;17.00;99.40;;;;;;5041407;28;20404;-73
2022/11/03 10:52:21;;;;;;;;;;;17.00;99.90;;;;;;5042207;28;19976;-73
2022/11/03 10:54:48;;;;;;;;;;;17.00;99.90;;;;;;5041161;28;20012;-72
2022/11/03 10:57:16;;;;;;;;;;;17.00;99.90;;;;;;5042121;28;19963;-70
2022/11/03 10:59:43;;;;;;;;;;;17.00;99.90;;;;;;5041918;28;19908;-70
2022/11/03 11:02:16;;;;;;;;;;;16.90;99.90;;;;;;5041218;28;19920;-72
2022/11/03 11:04:43;;;;;;;;;;;16.80;99.90;;;;;;5042379;28;20368;-71
2022/11/03 11:07:19;;;;;;;;;;;16.80;99.90;;;;;;5041843;28;19909;-71
2022/11/03 11:09:45;;;;;;;;;;;16.80;99.90;;;;;;5041319;28;19920;-71
2022/11/03 11:12:22;;;;;;;;;;;16.70;99.90;;;;;;5024746;28;20339;-71
2022/11/03 11:14:55;;;;;;;;;;;16.70;99.90;;;;;;5025234;28;20374;-73
2022/11/03 11:17:37;;;;;;;;;;;16.70;99.90;;;;;;5045696;28;19913;-70
2022/11/03 11:20:22;;;;;;;;;;;16.60;99.90;;;;;;5061982;28;20383;-70
2022/11/03 11:22:49;;;;;;;;;;;16.50;99.90;;;;;;5059149;28;19944;-71
2022/11/03 11:25:19;;;;;;;;;;;16.40;99.90;;;;;;5047298;28;19920;-72
2022/11/03 11:27:54;;;;;;;;;;;16.50;99.90;;;;;;5054250;28;19919;-72
2022/11/03 11:30:20;;;;;;;;;;;16.40;99.90;;;;;;5060155;28;19912;-72
2022/11/03 11:32:58;;;;;;;;;;;16.40;99.90;;;;;;5059468;28;19974;-72
2022/11/03 11:35:25;;;;;;;;;;;16.40;99.90;;;;;;5059503;28;19967;-74
2022/11/03 11:37:52;;;;;;;;;;;16.40;99.90;;;;;;5057094;28;19951;-72
2022/11/03 11:40:24;;;;;;;;;;;16.40;99.90;;;;;;5042963;28;19919;-72
2022/11/03 11:43:03;;;;;;;;;;;16.40;99.90;;;;;;5061108;28;19909;-72
2022/11/03 11:45:48;;;;;;;;;;;16.50;99.90;;;;;;5060623;28;20372;-74
2022/11/03 11:48:16;;;;;;;;;;;16.40;99.90;;;;;;5061194;28;20012;-72
2022/11/03 11:50:43;;;;;;;;;;;16.50;99.90;;;;;;5059350;28;19916;-72
2022/11/03 11:53:11;;;;;;;;;;;16.50;99.90;;;;;;5061354;28;20381;-71
2022/11/03 11:55:41;;;;;;;;;;;16.50;99.90;;;;;;5046032;28;19974;-72
2022/11/03 11:58:30;;;;;;;;;;;16.50;99.90;;;;;;5042034;28;19917;-72
2022/11/03 12:00:59;;;;;;;;;;;16.50;99.90;;;;;;5044639;28;19966;-74
2022/11/03 12:03:34;;;;;;;;;;;16.50;99.90;;;;;;5043754;28;20421;-70
2022/11/03 12:06:01;;;;;;;;;;;16.40;99.90;;;;;;5060984;28;19918;-70
2022/11/03 12:08:28;;;;;;;;;;;16.50;99.90;;;;;;5059620;28;19916;-72
2022/11/03 12:10:56;;;;;;;;;;;16.40;99.90;;;;;;5060414;28;19912;-70
2022/11/03 12:13:46;;;;;;;;;;;16.30;99.90;;;;;;5059368;28;19925;-70
2022/11/03 12:16:32;;;;;;;;;;;16.40;99.90;;;;;;5061648;28;19944;-70
2022/11/03 12:19:17;;;;;;;;;;;16.30;99.90;;;;;;5060658;28;19909;-73
2022/11/03 12:21:45;;;;;;;;;;;16.20;99.90;;;;;;5040874;28;19916;-73
2022/11/03 12:24:35;;;;;;;;;;;16.20;99.90;;;;;;5045451;28;19962;-72
2022/11/03 12:27:02;;;;;;;;;;;16.10;99.90;;;;;;5043181;28;19915;-72
2022/11/03 12:29:29;;;;;;;;;;;16.20;99.90;;;;;;5057427;28;19908;-72
2022/11/03 12:31:55;;;;;;;;;;;16.10;99.90;;;;;;5040025;28;19920;-72
2022/11/03 12:34:22;;;;;;;;;;;16.10;99.90;;;;;;5043017;28;19915;-73
2022/11/03 12:36:49;;;;;;;;;;;16.00;99.90;;;;;;5049233;28;19982;-73
2022/11/03 12:39:15;;;;;;;;;;;15.90;99.90;;;;;;5044188;28;19913;-73
2022/11/03 12:41:42;;;;;;;;;;;15.90;99.90;;;;;;5040458;28;19909;-73
2022/11/03 12:44:08;;;;;;;;;;;15.90;99.90;;;;;;5042755;28;19956;-71
2022/11/03 12:46:35;;;;;;;;;;;15.80;99.90;;;;;;5044544;28;20365;-70
2022/11/03 12:49:02;;;;;;;;;;;15.70;99.90;;;;;;5044053;28;20047;-70
2022/11/03 12:51:28;;;;;;;;;;;15.80;99.90;;;;;;5044089;28;19913;-72
2022/11/03 12:53:55;;;;;;;;;;;15.80;99.90;;;;;;5043907;28;20262;-72
2022/11/03 12:56:22;;;;;;;;;;;15.80;99.90;;;;;;5045685;28;19913;-71
2022/11/03 12:58:48;;;;;;;;;;;15.90;99.90;;;;;;5043934;28;19909;-71
2022/11/03 13:01:15;;;;;;;;;;;15.90;99.90;;;;;;5052579;28;19913;-70
2022/11/03 13:03:42;;;;;;;;;;;15.90;99.90;;;;;;5044939;28;19921;-70
2022/11/03 13:06:10;;;;;;;;;;;15.80;99.90;;;;;;5054390;28;19913;-70
2022/11/03 13:08:37;;;;;;;;;;;15.90;99.90;;;;;;5053916;28;19912;-70
2022/11/03 13:12:29;;;;;;;;;;;16.00;99.90;;;;;;5061743;28;19958;-71
2022/11/03 13:13:50;;;;;;;;;;;16.00;99.90;;;;;;5062999;28;19920;-70
2022/11/03 13:16:17;;;;;;;;;;;16.00;99.90;;;;;;5061855;28;19966;-71
2022/11/03 13:18:43;;;;;;;;;;;16.10;99.90;;;;;;5057360;28;19938;-71
2022/11/03 13:21:10;;;;;;;;;;;16.10;99.90;;;;;;5062326;28;19963;-70
2022/11/03 13:23:37;;;;;;;;;;;16.10;99.90;;;;;;5051158;28;19913;-70
2022/11/03 13:26:03;;;;;;;;;;;16.10;99.90;;;;;;5042552;28;20574;-71
2022/11/03 13:28:30;;;;;;;;;;;16.10;99.90;;;;;;5043976;28;19955;-70
2022/11/03 13:30:57;;;;;;;;;;;16.10;99.90;;;;;;5043422;28;19963;-71
2022/11/03 13:33:23;;;;;;;;;;;16.20;99.90;;;;;;5044442;28;19933;-72
2022/11/03 13:35:50;;;;;;;;;;;16.20;99.90;;;;;;5043701;28;20107;-73
2022/11/03 13:38:16;;;;;;;;;;;16.20;99.90;;;;;;5030842;28;19912;-70
2022/11/03 13:40:43;;;;;;;;;;;16.30;99.90;;;;;;5063487;28;20011;-70
2022/11/03 13:43:10;;;;;;;;;;;16.30;99.90;;;;;;5042042;28;20292;-71
2022/11/03 13:45:37;;;;;;;;;;;16.30;99.90;;;;;;5044377;28;19908;-70
2022/11/03 13:48:03;;;;;;;;;;;16.30;99.90;;;;;;5061331;28;20111;-71
2022/11/03 13:50:30;;;;;;;;;;;16.30;99.90;;;;;;5046062;28;19960;-71
2022/11/03 13:52:56;;;;;;;;;;;16.30;99.90;;;;;;5044168;28;19943;-71
2022/11/03 13:55:23;;;;;;;;;;;16.30;99.90;;;;;;5028490;28;19917;-73
2022/11/03 13:57:50;;;;;;;;;;;16.30;99.90;;;;;;5043722;28;19917;-71
2022/11/03 14:00:16;;;;;;;;;;;16.30;99.90;;;;;;5032792;28;20315;-71
2022/11/03 14:02:43;;;;;;;;;;;16.20;99.90;;;;;;5043684;28;20024;-71
2022/11/03 14:05:12;;;;;;;;;;;16.20;99.90;;;;;;5050205;28;19917;-74
2022/11/03 14:07:39;;;;;;;;;;;16.30;99.90;;;;;;5043302;28;20278;-72
2022/11/03 14:10:06;;;;;;;;;;;16.20;99.90;;;;;;5044079;28;19912;-71
2022/11/03 14:12:34;;;;;;;;;;;16.20;99.90;;;;;;5043156;28;19917;-71
2022/11/03 14:15:03;;;;;;;;;;;16.20;99.90;;;;;;5048903;28;19913;-73
2022/11/03 14:17:29;;;;;;;;;;;16.20;99.90;;;;;;5026437;28;19948;-72
2022/11/03 14:19:56;;;;;;;;;;;16.10;99.90;;;;;;5054603;28;20290;-71
2022/11/03 14:22:23;;;;;;;;;;;16.10;99.90;;;;;;5062851;28;19916;-71
2022/11/03 14:24:50;;;;;;;;;;;16.10;99.90;;;;;;5053790;28;20003;-73
2022/11/03 14:27:17;;;;;;;;;;;16.10;99.90;;;;;;5049913;28;19913;-71
2022/11/03 14:29:48;;;;;;;;;;;16.20;99.90;;;;;;5042739;28;19917;-71
2022/11/03 14:32:14;;;;;;;;;;;16.20;99.90;;;;;;5041703;28;19967;-74
2022/11/03 14:34:42;;;;;;;;;;;16.10;99.90;;;;;;5044196;28;19952;-70
2022/11/03 14:37:09;;;;;;;;;;;16.20;99.90;;;;;;5042725;28;19908;-73
2022/11/03 14:39:36;;;;;;;;;;;16.10;99.90;;;;;;5054248;28;19918;-71
2022/11/03 14:42:03;;;;;;;;;;;16.10;99.90;;;;;;5041730;28;20149;-71
2022/11/03 14:44:31;;;;;;;;;;;16.10;99.90;;;;;;5042227;28;19912;-72